Time;durP1;ratioP1;P1;durP2;ratioP2;P2;SDS_P1;SDS_P2;PMS_P1;PMS_P2;Temp;Humidity;BMP_temperature;BMP_pressure;BME280_temperature;BME280_humidity;BME280_pressure;Samples;Min_cycle;Max_cycle;Signal;HPM_P1;HPM_P2
2022/06/13 00:02:24;;;;;;;2.50;2.23;;;;;;;16.45;70.35;100385.50;1409869;92;21416;-85
2022/06/13 00:04:50;;;;;;;3.00;2.10;;;;;;;16.41;70.23;100388.75;1419395;91;22078;-86
2022/06/13 00:07:16;;;;;;;4.00;2.20;;;;;;;16.38;70.24;100385.94;1405707;93;23731;-86
2022/06/13 00:09:42;;;;;;;3.20;1.83;;;;;;;16.35;70.69;100394.84;1433672;91;21362;-85
2022/06/13 00:12:08;;;;;;;3.43;2.40;;;;;;;16.32;71.21;100391.20;1430162;91;22388;-85
2022/06/13 00:14:34;;;;;;;6.07;2.40;;;;;;;16.31;71.08;100386.86;1429529;91;21538;-87
2022/06/13 00:17:01;;;;;;;7.30;3.27;;;;;;;16.26;71.24;100378.60;1414705;91;21376;-87
2022/06/13 00:19:27;;;;;;;6.03;2.40;;;;;;;16.24;70.33;100382.78;1393951;93;21420;-85
2022/06/13 00:21:53;;;;;;;2.73;2.33;;;;;;;16.21;70.60;100377.30;1434989;90;21412;-87
2022/06/13 00:24:19;;;;;;;5.60;3.47;;;;;;;16.18;70.12;100379.00;1409573;91;21532;-85
2022/06/13 00:26:45;;;;;;;2.40;2.20;;;;;;;16.14;70.66;100376.40;1404454;93;22566;-86
2022/06/13 00:29:11;;;;;;;4.53;2.00;;;;;;;16.12;71.52;100370.41;1408152;93;21443;-87
2022/06/13 00:31:37;;;;;;;6.00;2.47;;;;;;;16.11;71.40;100371.91;1413860;92;21532;-86
2022/06/13 00:34:03;;;;;;;3.27;2.30;;;;;;;16.05;71.44;100367.31;1413123;92;21541;-88
2022/06/13 00:36:30;;;;;;;3.60;2.87;;;;;;;16.00;71.66;100367.38;1410020;92;22425;-88
2022/06/13 00:38:56;;;;;;;5.50;2.13;;;;;;;15.94;71.50;100364.59;1400669;92;21429;-86
2022/06/13 00:41:27;;;;;;;5.83;2.33;;;;;;;15.88;71.23;100364.85;1398591;93;21370;-87
2022/06/13 00:43:55;;;;;;;4.00;2.50;;;;;;;15.82;72.29;100370.07;1397812;92;23200;-85
2022/06/13 00:46:28;;;;;;;2.73;2.30;;;;;;;15.73;71.66;100367.48;1396678;92;23373;-85
2022/06/13 00:49:03;;;;;;;5.07;1.87;;;;;;;15.69;72.07;100370.20;1404784;92;22426;-85
2022/06/13 00:51:33;;;;;;;4.73;1.80;;;;;;;15.67;72.22;100361.52;1424593;90;21451;-85
2022/06/13 00:54:00;;;;;;;5.92;2.22;;;;;;;15.68;72.20;100360.55;1408494;92;21391;-84
2022/06/13 00:56:29;;;;;;;4.00;2.50;;;;;;;15.69;72.15;100364.88;1405744;92;22959;-85
2022/06/13 00:59:03;;;;;;;5.33;2.50;;;;;;;15.68;72.70;100362.37;1404521;92;21504;-84
2022/06/13 01:01:32;;;;;;;2.53;2.17;;;;;;;15.67;72.63;100361.52;1403135;92;21474;-85
2022/06/13 01:04:01;;;;;;;6.47;2.63;;;;;;;15.62;73.54;100355.89;1426647;90;22344;-85
2022/06/13 01:06:32;;;;;;;3.53;2.30;;;;;;;15.58;72.89;100359.95;1431133;91;21581;-84
2022/06/13 01:09:04;;;;;;;6.27;2.83;;;;;;;15.48;73.78;100356.73;1433682;90;21583;-85
2022/06/13 01:11:30;;;;;;;3.50;2.03;;;;;;;15.41;74.22;100354.45;1439963;90;21656;-85
2022/06/13 01:14:36;;;;;;;3.60;2.17;;;;;;;15.38;73.71;100354.30;1415242;91;21405;-84
2022/06/13 01:17:17;;;;;;;7.27;2.30;;;;;;;15.38;73.68;100346.81;1431650;91;21509;-84
2022/06/13 01:20:03;;;;;;;;;;;;;;;15.33;73.24;100340.19;1434225;91;21604;-85
2022/06/13 01:22:59;;;;;;;2.63;2.13;;;;;;;15.25;75.61;100341.59;1432334;90;20264;-85
2022/06/13 01:25:54;;;;;;;2.97;2.60;;;;;;;15.17;74.48;100337.66;1433857;90;21435;-85
2022/06/13 01:28:58;;;;;;;3.87;2.13;;;;;;;15.13;74.42;100336.34;1435546;90;21420;-85
2022/06/13 01:31:53;;;;;;;7.20;2.10;;;;;;;15.13;74.86;100332.34;1428361;91;21530;-85
2022/06/13 01:34:55;;;;;;;2.30;2.07;;;;;;;15.16;74.77;100329.32;1432183;91;22410;-85
2022/06/13 01:38:01;;;;;;;3.80;2.60;;;;;;;15.19;74.83;100326.32;1432243;90;21451;-85
2022/06/13 01:40:59;;;;;;;5.60;3.17;;;;;;;15.21;74.38;100329.61;1412248;91;21665;-85
2022/06/13 01:43:43;;;;;;;4.77;2.00;;;;;;;15.21;73.72;100329.61;1444225;90;21641;-85
2022/06/13 01:46:33;;;;;;;4.80;2.63;;;;;;;15.18;73.73;100326.48;1422186;91;21494;-84
2022/06/13 01:49:25;;;;;;;4.13;2.90;;;;;;;15.11;74.03;100317.06;1434867;90;22571;-87
2022/06/13 01:51:57;;;;;;;3.17;2.00;;;;;;;15.03;74.47;100319.78;1437362;90;22301;-86
2022/06/13 01:54:40;;;;;;;4.20;2.10;;;;;;;14.96;75.04;100314.83;1430526;90;21443;-86
2022/06/13 01:57:35;;;;;;;3.47;2.43;;;;;;;14.91;75.48;100310.06;1420285;91;21509;-85
2022/06/13 02:00:13;;;;;;;3.23;2.30;;;;;;;14.86;75.81;100308.42;1427638;91;21392;-86
2022/06/13 02:02:47;;;;;;;3.43;2.10;;;;;;;14.82;75.36;100309.30;1409289;92;21641;-85
2022/06/13 02:05:27;;;;;;;6.83;2.80;;;;;;;14.80;76.28;100300.64;1348158;96;21665;-85
2022/06/13 02:07:58;;;;;;;4.22;2.60;;;;;;;14.76;76.53;100299.35;1363220;95;21511;-85
2022/06/13 02:10:29;;;;;;;3.58;2.45;;;;;;;14.75;76.57;100292.86;1377898;95;21658;-85
2022/06/13 02:13:03;;;;;;;2.27;2.07;;;;;;;14.71;76.88;100292.39;1363666;95;21518;-85
2022/06/13 02:15:35;;;;;;;6.00;2.17;;;;;;;14.65;77.47;100289.11;1367398;95;21437;-85
2022/06/13 02:18:07;;;;;;;4.07;2.60;;;;;;;14.63;77.95;100294.59;1368762;94;21495;-84
2022/06/13 02:20:38;;;;;;;6.00;2.40;;;;;;;14.65;77.58;100299.77;1371573;95;22332;-85
2022/06/13 02:23:16;;;;;;;3.80;2.60;;;;;;;14.66;77.24;100294.75;1363107;95;22464;-85
2022/06/13 02:25:53;;;;;;;3.50;2.77;;;;;;;14.70;77.00;100295.22;1371345;95;21525;-85
2022/06/13 02:28:25;;;;;;;4.70;2.20;;;;;;;14.69;77.25;100296.23;1371616;95;21474;-85
2022/06/13 02:30:59;;;;;;;3.97;2.53;;;;;;;14.65;77.51;100297.09;1381458;95;22395;-85
2022/06/13 02:33:33;;;;;;;3.00;2.20;;;;;;;14.65;76.94;100295.77;1374386;95;21586;-85
2022/06/13 02:36:08;;;;;;;2.80;2.20;;;;;;;14.69;76.98;100294.39;1371741;95;22377;-84
2022/06/13 02:38:44;;;;;;;5.27;1.90;;;;;;;14.72;77.02;100283.89;1371067;95;21399;-86
2022/06/13 02:41:19;;;;;;;10.70;2.37;;;;;;;14.74;76.65;100296.03;1373654;95;21488;-86
2022/06/13 02:43:53;;;;;;;5.37;2.30;;;;;;;14.72;76.35;100295.37;1425677;90;22293;-86
2022/06/13 02:46:28;;;;;;;4.17;2.17;;;;;;;14.68;76.35;100292.75;1446370;90;21471;-85
2022/06/13 02:49:08;;;;;;;9.30;3.20;;;;;;;14.63;76.45;100295.11;1449012;90;22557;-85
2022/06/13 02:51:45;;;;;;;3.60;2.52;;;;;;;14.61;76.74;100293.11;1440072;90;21435;-85
2022/06/13 02:54:17;;;;;;;3.90;2.57;;;;;;;14.58;76.67;100290.80;1394934;90;21493;-85
2022/06/13 02:57:27;;;;;;;6.83;2.47;;;;;;;14.59;76.73;100291.15;1441686;90;21390;-85
2022/06/13 03:00:42;;;;;;;4.03;1.87;;;;;;;14.63;76.86;100285.78;1449232;90;21509;-87
2022/06/13 03:03:26;;;;;;;2.60;2.40;;;;;;;14.65;77.08;100283.78;1438810;90;22603;-84
2022/06/13 03:06:01;;;;;;;7.00;2.50;;;;;;;14.71;77.00;100283.06;1426116;91;21368;-83
2022/06/13 03:08:57;;;;;;;10.40;3.30;;;;;;;14.71;77.04;100282.24;1416626;91;21517;-84
2022/06/13 03:11:34;;;;;;;2.70;2.40;;;;;;;14.69;77.28;100291.73;1422185;91;21471;-85
2022/06/13 03:14:39;;;;;;;3.13;2.53;;;;;;;14.68;76.83;100288.75;1449004;90;22417;-84
2022/06/13 03:17:26;;;;;;;5.37;2.70;;;;;;;14.69;77.35;100282.91;1389082;94;22604;-83
2022/06/13 03:19:58;;;;;;;5.17;2.10;;;;;;;14.71;77.65;100277.73;1443381;90;21530;-84
2022/06/13 03:22:57;;;;;;;29.63;3.67;;;;;;;14.77;77.56;100281.02;1406992;93;21673;-84
2022/06/13 03:25:47;;;;;;;5.73;3.10;;;;;;;14.84;77.47;100279.79;1448042;90;21465;-84
2022/06/13 03:28:46;;;;;;;3.87;2.52;;;;;;;14.90;77.25;100284.40;1449483;90;21457;-84
2022/06/13 03:31:30;;;;;;;4.80;2.87;;;;;;;14.94;77.24;100276.90;1419205;90;22388;-84
2022/06/13 03:34:01;;;;;;;3.97;2.67;;;;;;;14.98;77.17;100279.52;1397430;93;21585;-84
2022/06/13 03:36:39;;;;;;;8.87;2.80;;;;;;;15.02;77.04;100279.50;1448339;90;21479;-84
2022/06/13 03:39:29;;;;;;;7.87;2.97;;;;;;;15.07;77.47;100288.58;1421875;92;21458;-84
2022/06/13 03:42:12;;;;;;;3.37;2.72;;;;;;;15.16;77.19;100281.84;1394164;92;21494;-84
2022/06/13 03:45:11;;;;;;;7.20;2.80;;;;;;;15.24;77.01;100289.27;1430525;90;22263;-84
2022/06/13 03:47:45;;;;;;;8.10;3.00;;;;;;;15.31;76.82;100284.87;1382371;93;21429;-85
2022/06/13 03:50:35;;;;;;;5.90;3.00;;;;;;;15.41;76.51;100294.44;1441893;90;21450;-85
2022/06/13 03:53:09;;;;;;;5.17;3.00;;;;;;;15.46;76.23;100294.73;1420750;92;21501;-83
2022/06/13 03:55:42;;;;;;;5.10;2.93;;;;;;;15.48;75.97;100294.05;1387753;93;22588;-85
2022/06/13 03:58:20;;;;;;;5.03;3.27;;;;;;;15.51;76.13;100297.69;1444296;90;22390;-85
2022/06/13 04:01:04;;;;;;;4.63;2.80;;;;;;;15.54;76.43;100291.47;1447277;90;21708;-87
2022/06/13 04:03:31;;;;;;;4.90;2.60;;;;;;;15.61;76.79;100296.89;1398680;92;21526;-87
2022/06/13 04:06:05;;;;;;;5.87;2.93;;;;;;;15.70;76.59;100299.81;1433107;91;21678;-88
2022/06/13 04:08:35;;;;;;;4.27;2.73;;;;;;;15.78;76.59;100290.91;1427499;91;21368;-87
2022/06/13 04:11:25;;;;;;;4.80;3.12;;;;;;;15.86;76.80;100289.98;1406650;92;21635;-84
2022/06/13 04:14:18;;;;;;;6.30;3.10;;;;;;;15.93;76.43;100288.22;1425188;90;22488;-85
2022/06/13 04:16:58;;;;;;;3.67;2.53;;;;;;;16.02;76.01;100295.10;1430873;91;21650;-85
2022/06/13 04:19:42;;;;;;;6.60;3.10;;;;;;;16.08;75.97;100293.53;1435140;91;21502;-85
2022/06/13 04:22:39;;;;;;;6.90;3.40;;;;;;;16.16;76.27;100288.09;1424540;91;23367;-86
2022/06/13 04:25:13;;;;;;;9.17;3.07;;;;;;;16.27;76.12;100288.13;1433658;90;21400;-86
2022/06/13 04:27:48;;;;;;;8.53;2.97;;;;;;;16.42;76.20;100290.23;1376747;94;21583;-85
2022/06/13 04:30:19;;;;;;;8.60;3.57;;;;;;;16.57;76.09;100295.03;1426384;91;21420;-85
2022/06/13 04:33:09;;;;;;;3.90;2.70;;;;;;;16.67;75.58;100290.19;1439365;90;21427;-85
2022/06/13 04:35:36;;;;;;;12.80;3.30;;;;;;;16.80;75.06;100291.36;1433205;90;22422;-85
2022/06/13 04:38:07;;;;;;;3.67;2.80;;;;;;;16.91;74.95;100290.84;1376603;94;21450;-85
2022/06/13 04:40:34;;;;;;;;;;;;;;;17.00;74.50;100292.88;1433521;91;21642;-86
2022/06/13 04:43:02;;;;;;;5.43;2.73;;;;;;;17.08;74.28;100296.75;1430929;90;20443;-86
2022/06/13 04:45:33;;;;;;;4.20;3.13;;;;;;;17.14;73.29;100291.96;1433514;90;21361;-87
2022/06/13 04:48:01;;;;;;;9.00;2.57;;;;;;;17.20;72.96;100291.19;1402839;91;21583;-86
2022/06/13 04:50:33;;;;;;;4.23;2.87;;;;;;;17.32;72.78;100295.48;1394405;92;21435;-87
2022/06/13 04:53:01;;;;;;;4.27;3.03;;;;;;;17.47;72.71;100298.91;1440601;90;21575;-87
2022/06/13 04:55:41;;;;;;;5.13;2.80;;;;;;;17.58;72.10;100298.36;1441123;90;21302;-86
2022/06/13 04:58:24;;;;;;;5.75;2.83;;;;;;;17.75;72.06;100295.34;1426433;90;22624;-84
2022/06/13 05:00:56;;;;;;;7.83;2.97;;;;;;;17.89;71.37;100298.44;1426253;91;21479;-84
2022/06/13 05:03:27;;;;;;;3.23;2.60;;;;;;;18.03;71.16;100289.44;1421718;91;21472;-84
2022/06/13 05:05:57;;;;;;;6.37;2.70;;;;;;;18.17;70.71;100290.84;1382558;94;21557;-85
2022/06/13 05:08:32;;;;;;;4.60;2.27;;;;;;;18.29;70.54;100289.23;1426001;91;21457;-85
2022/06/13 05:11:05;;;;;;;5.23;2.90;;;;;;;18.38;69.51;100285.33;1422048;91;22425;-85
2022/06/13 05:13:31;;;;;;;11.50;2.93;;;;;;;18.55;69.92;100285.79;1423475;91;22070;-82
2022/06/13 05:16:20;;;;;;;4.97;3.27;;;;;;;18.69;69.47;100283.96;1425318;91;21368;-83
2022/06/13 05:18:55;;;;;;;3.30;2.40;;;;;;;18.83;68.75;100284.32;1443115;91;21421;-83
2022/06/13 05:21:48;;;;;;;6.33;2.50;;;;;;;18.99;67.88;100283.59;1425002;91;21655;-83
2022/06/13 05:24:20;;;;;;;4.70;2.37;;;;;;;19.09;65.95;100282.68;1380351;94;21501;-87
2022/06/13 05:26:46;;;;;;;4.97;2.87;;;;;;;19.20;65.31;100282.06;1426423;91;21633;-86
2022/06/13 05:29:12;;;;;;;7.00;2.80;;;;;;;19.31;65.98;100284.64;1389404;94;22515;-87
2022/06/13 05:31:38;;;;;;;2.83;2.50;;;;;;;19.38;65.00;100284.92;1429411;91;21478;-86
2022/06/13 05:34:07;;;;;;;4.67;2.13;;;;;;;19.50;64.99;100280.25;1403471;93;21562;-85
2022/06/13 05:36:34;;;;;;;4.33;2.13;;;;;;;19.54;64.19;100283.66;1408223;93;21605;-85
2022/06/13 05:39:06;;;;;;;3.87;2.45;;;;;;;19.67;64.71;100280.14;1434015;91;21545;-87
2022/06/13 05:41:32;;;;;;;3.90;2.12;;;;;;;19.71;62.83;100276.02;1432899;91;21576;-87
2022/06/13 05:43:58;;;;;;;11.78;2.60;;;;;;;19.88;63.54;100283.59;1403439;93;23360;-86
2022/06/13 05:46:37;;;;;;;2.62;2.27;;;;;;;19.96;63.30;100290.07;1430360;91;21543;-86
2022/06/13 05:49:03;;;;;;;4.25;2.25;;;;;;;20.09;63.20;100289.20;1430280;91;21613;-88
2022/06/13 05:51:30;;;;;;;5.87;2.47;;;;;;;20.26;63.21;100279.09;1398513;93;22611;-89
2022/06/13 05:53:57;;;;;;;2.85;2.35;;;;;;;20.43;63.08;100283.45;1421378;93;22901;-86
2022/06/13 05:56:25;;;;;;;3.10;1.80;;;;;;;20.58;62.42;100279.14;1429998;91;21413;-85
2022/06/13 05:58:52;;;;;;;5.62;3.05;;;;;;;20.69;60.98;100281.14;1429172;91;21472;-86
2022/06/13 06:01:18;;;;;;;7.15;2.33;;;;;;;20.79;60.45;100276.61;1434500;91;21914;-86
2022/06/13 06:03:45;;;;;;;2.75;2.15;;;;;;;20.90;60.32;100273.22;1437089;91;21318;-85
2022/06/13 06:06:15;;;;;;;4.72;3.15;;;;;;;21.03;60.54;100265.58;1406051;93;21465;-85
2022/06/13 06:08:41;;;;;;;6.35;2.35;;;;;;;21.09;59.73;100272.77;1427903;91;22298;-85
2022/06/13 06:11:07;;;;;;;6.92;2.70;;;;;;;21.23;59.33;100276.14;1423333;91;21421;-86
2022/06/13 06:13:35;;;;;;;3.12;2.25;;;;;;;21.33;59.40;100275.65;1405626;93;21451;-86
2022/06/13 06:16:02;;;;;;;4.08;2.35;;;;;;;21.40;56.97;100268.34;1427886;91;21406;-85
2022/06/13 06:18:32;;;;;;;4.35;2.12;;;;;;;21.50;58.22;100268.67;1385948;94;21399;-86
2022/06/13 06:20:59;;;;;;;2.95;2.20;;;;;;;21.58;58.01;100272.95;1390639;93;22479;-86
2022/06/13 06:23:26;;;;;;;4.22;2.33;;;;;;;21.68;57.60;100277.80;1434562;91;21339;-86
2022/06/13 06:25:52;;;;;;;4.00;2.15;;;;;;;21.69;55.33;100273.52;1388183;94;21428;-87
2022/06/13 06:28:23;;;;;;;7.72;2.60;;;;;;;21.76;56.14;100273.47;1427789;91;21517;-88
2022/06/13 06:30:52;;;;;;;3.50;2.55;;;;;;;21.72;56.21;100272.25;1428450;91;21369;-85
2022/06/13 06:33:18;;;;;;;8.93;2.37;;;;;;;21.85;56.21;100274.80;1428339;91;21539;-86
2022/06/13 06:35:44;;;;;;;5.60;2.08;;;;;;;21.99;55.55;100276.82;1416982;91;21683;-86
2022/06/13 06:38:11;;;;;;;7.28;2.77;;;;;;;22.09;55.41;100269.01;1436237;91;21577;-85
2022/06/13 06:40:38;;;;;;;4.70;2.33;;;;;;;22.22;55.22;100264.83;1412989;93;21644;-86
2022/06/13 06:43:05;;;;;;;6.83;2.22;;;;;;;22.39;55.63;100265.02;1395426;93;21517;-86
2022/06/13 06:45:32;;;;;;;9.18;2.42;;;;;;;22.52;54.85;100258.69;1431023;91;22314;-86
2022/06/13 06:47:59;;;;;;;9.28;2.25;;;;;;;22.66;54.87;100251.13;1383601;94;21465;-86
2022/06/13 06:50:30;;;;;;;9.53;2.67;;;;;;;22.66;52.17;100251.13;1428752;91;21420;-85
2022/06/13 06:52:56;;;;;;;2.47;2.00;;;;;;;22.71;53.42;100258.02;1411168;91;23286;-86
2022/06/13 07:01:02;;;;;;;6.67;2.70;;;;;;;23.06;53.85;100262.66;1393790;92;21421;-88
2022/06/13 07:03:30;;;;;;;10.13;2.40;;;;;;;23.16;52.33;100252.08;1387004;94;21584;-85
2022/06/13 07:05:56;;;;;;;2.52;2.22;;;;;;;23.24;51.16;100253.08;1396746;93;21540;-86
2022/06/13 07:08:23;;;;;;;3.47;1.80;;;;;;;23.27;51.06;100251.27;1405065;93;22359;-86
2022/06/13 07:11:53;;;;;;;4.33;2.37;;;;;;;23.41;51.74;100246.45;1435072;91;21480;-87
2022/06/13 07:13:30;;;;;;;3.77;2.37;;;;;;;23.51;50.39;100256.67;1418572;91;21472;-86
2022/06/13 07:15:56;;;;;;;6.55;2.10;;;;;;;23.62;49.80;100251.75;1432143;91;21428;-85
2022/06/13 07:18:22;;;;;;;3.83;2.42;;;;;;;23.76;49.99;100247.75;1426625;91;23387;-86
2022/06/13 07:20:48;;;;;;;7.70;1.87;;;;;;;23.85;49.76;100255.80;1429184;91;21918;-88
2022/06/13 07:23:15;;;;;;;2.87;2.58;;;;;;;23.92;49.04;100256.19;1433523;91;21405;-85
2022/06/13 07:25:41;;;;;;;7.20;2.22;;;;;;;23.95;48.69;100255.71;1432053;91;21619;-85
2022/06/13 07:28:08;;;;;;;5.37;1.82;;;;;;;24.07;49.28;100253.25;1432626;91;22572;-86
2022/06/13 07:30:34;;;;;;;2.30;1.80;;;;;;;24.25;49.31;100252.23;1429005;91;21605;-87
2022/06/13 07:33:00;;;;;;;7.17;1.60;;;;;;;24.44;49.55;100254.77;1434589;91;21559;-86
2022/06/13 07:35:28;;;;;;;5.58;2.20;;;;;;;24.51;48.92;100258.98;1432153;91;23236;-87
2022/06/13 07:40:40;;;;;;;5.72;1.92;;;;;;;24.63;49.02;100249.94;1433860;91;21529;-86
2022/06/13 07:43:09;;;;;;;2.25;1.95;;;;;;;24.65;48.37;100239.70;1427792;91;21578;-85
2022/06/13 07:45:40;;;;;;;4.75;1.80;;;;;;;24.81;48.39;100238.09;1415207;91;21478;-86
2022/06/13 07:48:08;;;;;;;3.12;1.92;;;;;;;24.87;47.57;100235.20;1513382;91;21184;-85
2022/06/13 07:50:34;;;;;;;7.62;1.80;;;;;;;25.04;47.84;100240.61;1441980;91;21436;-85
2022/06/13 07:53:00;;;;;;;6.30;2.65;;;;;;;25.12;47.16;100241.55;1361084;91;21416;-87
2022/06/13 07:55:30;;;;;;;4.78;3.00;;;;;;;25.23;46.94;100247.13;1361000;91;21265;-85
2022/06/13 07:57:56;;;;;;;7.28;2.42;;;;;;;25.25;46.95;100246.36;1434335;91;21548;-85
2022/06/13 08:00:27;;;;;;;11.95;2.65;;;;;;;25.35;45.94;100240.56;1430169;91;21509;-85
2022/06/13 08:02:54;;;;;;;5.80;2.33;;;;;;;25.29;45.85;100232.59;1432506;91;22506;-85
2022/06/13 08:05:21;;;;;;;6.35;2.15;;;;;;;25.36;45.89;100231.89;1433686;91;21650;-86
2022/06/13 08:07:49;;;;;;;4.65;2.25;;;;;;;25.47;44.70;100228.25;1431355;91;22516;-85
2022/06/13 08:10:15;;;;;;;3.45;2.02;;;;;;;25.37;41.95;100229.45;1432948;91;21507;-85
2022/06/13 08:12:43;;;;;;;2.90;2.10;;;;;;;25.39;43.66;100225.97;1433715;91;21442;-86
2022/06/13 08:15:12;;;;;;;3.12;1.70;;;;;;;25.54;43.60;100226.16;1435987;91;21988;-86
2022/06/13 08:17:40;;;;;;;2.97;1.63;;;;;;;25.68;43.00;100225.80;1433208;91;22270;-86
2022/06/13 08:20:10;;;;;;;4.70;2.85;;;;;;;25.89;43.14;100223.63;1433443;91;21568;-86
2022/06/13 08:22:46;;;;;;;4.42;1.85;;;;;;;26.03;42.76;100218.09;1428620;90;21405;-86
2022/06/13 08:25:27;;;;;;;18.82;2.55;;;;;;;26.19;42.57;100218.27;1426591;91;21398;-86
2022/06/13 08:27:58;;;;;;;4.92;2.47;;;;;;;26.29;40.93;100219.17;1433679;91;21457;-86
2022/06/13 08:30:28;;;;;;;7.83;2.20;;;;;;;26.36;41.25;100217.63;1431333;91;21545;-86
2022/06/13 08:32:54;;;;;;;;;;;;;;;26.54;43.18;100217.81;1432701;91;22580;-85
2022/06/13 08:35:20;;;;;;;3.12;1.67;;;;;;;26.66;40.80;100217.63;1436239;91;20340;-86
2022/06/13 08:37:46;;;;;;;2.40;1.60;;;;;;;26.75;41.73;100218.78;1438439;91;22243;-85
2022/06/13 08:40:13;;;;;;;2.95;2.10;;;;;;;26.74;40.12;100218.52;1423557;90;21545;-85
2022/06/13 08:42:50;;;;;;;2.50;1.82;;;;;;;26.66;40.79;100211.66;1438576;91;21428;-85
2022/06/13 08:45:34;;;;;;;5.25;1.80;;;;;;;26.76;41.01;100215.83;1437845;91;21641;-85
2022/06/13 08:48:10;;;;;;;4.17;1.75;;;;;;;26.73;39.94;100218.25;1436920;91;22474;-85
2022/06/13 08:50:54;;;;;;;5.28;2.20;;;;;;;26.78;39.36;100216.91;1424007;91;21435;-85
2022/06/13 08:53:32;;;;;;;3.17;1.85;;;;;;;26.95;40.56;100221.64;1434976;91;21464;-85
2022/06/13 08:56:06;;;;;;;7.70;1.67;;;;;;;26.98;38.96;100212.97;1433540;91;21478;-85
2022/06/13 08:58:57;;;;;;;8.45;1.42;;;;;;;27.16;39.29;100217.73;1438458;91;21548;-85
2022/06/13 09:01:38;;;;;;;2.10;1.57;;;;;;;27.30;39.43;100212.66;1430557;91;21530;-89
2022/06/13 09:04:25;;;;;;;1.70;1.42;;;;;;;27.47;38.63;100213.83;1429103;91;21463;-86
2022/06/13 09:07:15;;;;;;;5.45;1.60;;;;;;;27.42;36.25;100212.73;1430482;91;21471;-86
2022/06/13 09:09:49;;;;;;;3.67;1.50;;;;;;;27.42;35.73;100210.02;1434250;91;21391;-85
2022/06/13 09:12:58;;;;;;;4.05;2.17;;;;;;;27.63;38.31;100218.25;1391013;94;21501;-85
2022/06/13 09:15:38;;;;;;;3.67;1.90;;;;;;;27.78;37.87;100219.66;1426321;91;21471;-83
2022/06/13 09:18:23;;;;;;;5.17;1.77;;;;;;;27.76;36.47;100222.37;1434380;91;21553;-84
2022/06/13 09:20:54;;;;;;;3.17;1.65;;;;;;;27.72;37.11;100211.22;1407432;91;21531;-85
2022/06/13 09:23:43;;;;;;;2.65;1.47;;;;;;;27.71;36.38;100212.31;1433133;91;21524;-85
2022/06/13 09:26:18;;;;;;;4.40;1.52;;;;;;;27.92;37.15;100209.69;1429006;91;22366;-85
2022/06/13 09:29:02;;;;;;;5.10;1.82;;;;;;;27.99;36.72;100211.59;1411204;91;21384;-85
2022/06/13 09:31:46;;;;;;;2.40;1.45;;;;;;;27.99;36.88;100208.88;1432185;91;21598;-85
2022/06/13 09:34:21;;;;;;;4.87;1.27;;;;;;;28.23;37.11;100205.12;1419211;90;21546;-78
2022/06/13 09:37:05;;;;;;;3.17;1.35;;;;;;;28.15;36.10;100202.94;1431267;91;21398;-80
2022/06/13 09:39:32;;;;;;;4.17;1.42;;;;;;;28.18;35.93;100207.28;1422981;91;21656;-80
2022/06/13 09:42:31;;;;;;;3.08;1.15;;;;;;;28.24;35.96;100202.13;1435012;91;22473;-79
2022/06/13 09:45:30;;;;;;;3.50;1.60;;;;;;;28.41;36.06;100202.41;1427822;90;22514;-79
2022/06/13 09:48:17;;;;;;;4.15;1.75;;;;;;;28.23;34.29;100196.42;1431372;91;21552;-80
2022/06/13 09:51:20;;;;;;;4.78;1.57;;;;;;;28.25;34.71;100201.02;1404034;92;21395;-79
2022/06/13 09:54:01;;;;;;;3.37;1.60;;;;;;;28.38;35.60;100193.44;1416070;91;22136;-79
2022/06/13 09:57:07;;;;;;;2.05;1.70;;;;;;;28.44;35.22;100196.45;1422756;91;21509;-80
2022/06/13 10:00:08;;;;;;;2.35;1.50;;;;;;;28.48;34.43;100190.73;1429738;91;21545;-79
2022/06/13 10:02:49;;;;;;;2.45;1.40;;;;;;;28.72;35.07;100185.02;1430142;91;21604;-80
2022/06/13 10:05:43;;;;;;;2.20;1.35;;;;;;;28.69;32.65;100177.39;1430794;91;21612;-80
2022/06/13 10:08:46;;;;;;;4.00;1.30;;;;;;;28.67;33.89;100174.12;1420909;91;21456;-80
2022/06/13 10:11:37;;;;;;;1.98;1.42;;;;;;;28.61;32.72;100171.14;1435302;91;22529;-79
2022/06/13 10:14:44;;;;;;;2.33;1.30;;;;;;;28.91;34.10;100172.17;1429731;91;21649;-83
2022/06/13 10:17:49;;;;;;;3.62;1.55;;;;;;;28.96;33.73;100169.45;1430116;91;21449;-82
2022/06/13 10:20:40;;;;;;;3.42;1.10;;;;;;;29.21;33.54;100163.15;1428790;91;21570;-80
2022/06/13 10:23:48;;;;;;;5.75;1.12;;;;;;;29.32;32.19;100162.02;1445866;90;21538;-80
2022/06/13 10:26:31;;;;;;;4.30;0.93;;;;;;;29.51;33.59;100156.74;1424959;91;21508;-82
2022/06/13 10:29:40;;;;;;;4.53;1.62;;;;;;;29.60;31.41;100149.60;1428400;91;22433;-82
2022/06/13 10:32:39;;;;;;;6.15;1.30;;;;;;;29.72;30.78;100151.21;1434156;91;21559;-82
2022/06/13 10:35:45;;;;;;;1.30;0.88;;;;;;;29.87;31.75;100142.95;1429961;91;23450;-83
2022/06/13 10:38:38;;;;;;;4.03;0.98;;;;;;;30.00;30.87;100142.30;1432281;91;21479;-82
2022/06/13 10:41:06;;;;;;;0.88;0.82;;;;;;;30.00;30.15;100131.38;1434380;91;21640;-82
2022/06/13 10:43:32;;;;;;;2.40;1.30;;;;;;;30.01;29.81;100134.92;1439703;91;21996;-82
2022/06/13 10:45:58;;;;;;;1.62;0.82;;;;;;;30.12;30.41;100136.48;1432228;91;21604;-79
2022/06/13 10:48:39;;;;;;;1.65;1.15;;;;;;;30.12;29.11;100124.20;1417476;91;21419;-83
2022/06/13 10:51:06;;;;;;;1.35;0.98;;;;;;;29.96;28.71;100123.52;1415911;91;22498;-83
2022/06/13 10:53:46;;;;;;;0.85;0.70;;;;;;;29.97;30.04;100119.68;1433855;91;22240;-83
2022/06/13 10:56:24;;;;;;;1.80;0.82;;;;;;;30.18;30.90;100116.79;1434197;91;21693;-83
2022/06/13 10:58:57;;;;;;;3.37;0.90;;;;;;;30.24;30.34;100119.77;1438277;91;21398;-82
2022/06/13 11:01:30;;;;;;;3.40;1.50;;;;;;;30.40;30.53;100104.89;1434606;91;22417;-83
2022/06/13 11:04:17;;;;;;;3.65;0.90;;;;;;;30.48;28.54;100107.00;1438021;91;21361;-85
2022/06/13 11:06:54;;;;;;;3.58;1.07;;;;;;;30.41;29.46;100091.49;1435870;91;21553;-82
2022/06/13 11:09:41;;;;;;;2.85;1.45;;;;;;;30.45;29.95;100091.20;1430078;91;21818;-83
2022/06/13 11:12:33;;;;;;;1.20;0.90;;;;;;;30.28;30.30;100085.36;1436833;91;21545;-83
2022/06/13 11:23:58;;;;;;;3.85;1.37;;;;;;;30.60;31.20;100067.57;1436245;91;21383;-83
2022/06/13 11:29:17;;;;;;;3.92;0.93;;;;;;;30.69;30.26;100064.46;1432552;91;21449;-84
2022/06/13 11:31:56;;;;;;;5.05;0.95;;;;;;;30.78;29.91;100059.42;1437981;91;21435;-81
2022/06/13 11:34:32;;;;;;;2.15;1.20;;;;;;;30.86;30.20;100051.73;1417404;91;21472;-80
2022/06/13 11:37:07;;;;;;;2.15;1.10;;;;;;;30.84;30.11;100049.28;1423073;91;21465;-81
2022/06/13 11:39:39;;;;;;;2.87;1.25;;;;;;;30.87;28.96;100041.05;1436321;91;22447;-81
2022/06/13 11:42:26;;;;;;;6.97;1.20;;;;;;;30.93;28.99;100037.98;1439780;91;21538;-82
2022/06/13 11:45:00;;;;;;;2.85;1.10;;;;;;;31.05;28.92;100031.29;1431042;91;21523;-80
2022/06/13 11:47:28;;;;;;;3.37;1.20;;;;;;;31.02;29.21;100029.39;1432387;91;21413;-81
2022/06/13 11:49:57;;;;;;;3.27;1.13;;;;;;;31.09;29.68;100025.48;1432300;90;21605;-80
2022/06/13 11:55:30;;;;;;;11.33;1.72;;;;;;;31.14;28.08;100031.70;1429420;91;21442;-80
2022/06/13 11:58:02;;;;;;;3.27;1.20;;;;;;;31.26;28.33;100024.42;1423487;91;21494;-80
2022/06/13 12:00:39;;;;;;;2.75;1.02;;;;;;;31.41;28.42;100016.02;1425979;91;21420;-81
2022/06/13 12:03:18;;;;;;;4.85;1.25;;;;;;;31.26;27.53;100020.32;1434243;91;21412;-81
2022/06/13 12:05:51;;;;;;;4.58;1.55;;;;;;;31.49;27.63;100016.47;1438173;91;21502;-81
2022/06/13 12:08:31;;;;;;;2.42;1.05;;;;;;;31.62;26.80;100015.17;1418672;91;22491;-81
2022/06/13 12:11:03;;;;;;;1.60;1.02;;;;;;;31.65;26.36;100012.37;1430186;91;21547;-82
2022/06/13 12:13:34;;;;;;;1.72;0.90;;;;;;;31.75;26.76;100013.58;1433096;91;21635;-81
2022/06/13 12:16:27;;;;;;;3.95;0.90;;;;;;;31.71;26.10;100011.20;1437670;91;22558;-81
2022/06/13 12:19:05;;;;;;;5.55;1.40;;;;;;;31.42;26.51;100009.46;1427146;91;21407;-81
2022/06/13 12:21:46;;;;;;;14.85;1.32;;;;;;;31.39;25.70;99997.75;1434145;91;21449;-81
2022/06/13 12:24:23;;;;;;;3.22;1.40;;;;;;;31.28;25.89;99993.52;1393421;91;21531;-80
2022/06/13 12:27:22;;;;;;;31.48;3.55;;;;;;;31.35;25.82;99987.13;1435106;91;21493;-81
2022/06/13 12:30:15;;;;;;;3.60;0.95;;;;;;;31.62;25.74;99982.34;1413195;90;21644;-80
2022/06/13 12:33:02;;;;;;;2.98;1.40;;;;;;;31.63;25.04;99994.09;1405969;90;22691;-80
2022/06/13 12:35:43;;;;;;;3.37;1.40;;;;;;;31.66;25.04;99990.77;1433634;91;21553;-81